Time;durP1;ratioP1;P1;durP2;ratioP2;P2;SDS_P1;SDS_P2;PMS_P1;PMS_P2;Temp;Humidity;BMP_temperature;BMP_pressure;BME280_temperature;BME280_humidity;BME280_pressure;Samples;Min_cycle;Max_cycle;Signal;HPM_P1;HPM_P2
2022/10/24 00:01:30;;;;;;;8.45;1.35;;;17.60;99.90;;;;;;4135459;28;20777;-93
2022/10/24 00:03:31;;;;;;;8.77;1.50;;;17.60;99.90;;;;;;4119145;28;20229;-90
2022/10/24 00:05:32;;;;;;;10.30;1.65;;;17.50;99.90;;;;;;4119346;28;20659;-89
2022/10/24 00:07:32;;;;;;;15.13;1.63;;;17.60;99.90;;;;;;4119125;28;20174;-92
2022/10/24 00:09:34;;;;;;;8.80;1.67;;;17.50;99.90;;;;;;4118863;28;20182;-89
2022/10/24 00:11:35;;;;;;;7.85;1.40;;;17.50;99.90;;;;;;4119313;28;20225;-89
2022/10/24 00:13:36;;;;;;;3.13;1.00;;;17.40;99.90;;;;;;4119949;28;20178;-89
2022/10/24 00:15:37;;;;;;;3.17;1.23;;;17.50;99.90;;;;;;4119125;28;20182;-90
2022/10/24 00:17:37;;;;;;;3.38;1.67;;;17.60;99.90;;;;;;4118997;28;20174;-90
2022/10/24 00:19:38;;;;;;;8.10;1.38;;;17.60;99.90;;;;;;4118904;28;20170;-89
2022/10/24 00:21:39;;;;;;;7.15;1.33;;;17.60;99.90;;;;;;4118895;28;20241;-89
2022/10/24 00:23:40;;;;;;;3.95;1.20;;;17.70;99.90;;;;;;4119935;28;20261;-94
2022/10/24 00:25:40;;;;;;;7.65;1.30;;;17.80;99.90;;;;;;4119136;28;20174;-95
2022/10/24 00:27:41;;;;;;;5.35;1.17;;;17.80;99.90;;;;;;4119963;28;20186;-90
2022/10/24 00:29:42;;;;;;;9.52;1.40;;;17.80;99.90;;;;;;4119069;28;20276;-88
2022/10/24 00:31:42;;;;;;;6.53;1.58;;;17.70;99.90;;;;;;4118915;28;20603;-90
2022/10/24 00:33:44;;;;;;;13.45;1.30;;;17.60;99.90;;;;;;4118638;28;20640;-90
2022/10/24 00:35:45;;;;;;;10.35;1.30;;;17.60;99.90;;;;;;4118840;28;20170;-92
2022/10/24 00:37:46;;;;;;;6.47;1.38;;;17.60;99.90;;;;;;4118950;28;20183;-89
2022/10/24 00:39:47;;;;;;;8.15;1.55;;;17.60;99.90;;;;;;4119146;28;20256;-94
2022/10/24 00:41:49;;;;;;;3.88;1.02;;;17.60;99.90;;;;;;4119405;28;20229;-90
2022/10/24 00:44:20;;;;;;;7.20;1.42;;;17.60;99.90;;;;;;4134673;28;20233;-91
2022/10/24 00:46:21;;;;;;;11.82;1.35;;;17.70;99.90;;;;;;4118364;28;20539;-92
2022/10/24 00:48:26;;;;;;;11.15;1.20;;;17.60;99.90;;;;;;4117989;28;20182;-92
2022/10/24 00:50:27;;;;;;;4.30;1.00;;;17.70;99.90;;;;;;4118309;28;20265;-96
2022/10/24 00:52:32;;;;;;;6.25;1.05;;;17.60;99.90;;;;;;4118972;28;20214;-89
2022/10/24 00:54:34;;;;;;;4.95;1.13;;;17.60;99.90;;;;;;4118281;28;20265;-89
2022/10/24 00:56:40;;;;;;;3.58;0.82;;;17.60;99.90;;;;;;4118444;28;20205;-89
2022/10/24 00:58:43;;;;;;;6.00;1.30;;;17.60;99.90;;;;;;4117974;28;20186;-90
2022/10/24 01:00:44;;;;;;;6.55;1.20;;;17.60;99.90;;;;;;4118172;28;20190;-91
2022/10/24 01:02:46;;;;;;;11.18;1.10;;;17.60;99.90;;;;;;4118802;28;20191;-90
2022/10/24 01:04:47;;;;;;;3.80;0.95;;;17.60;99.90;;;;;;4118278;28;20273;-89
2022/10/24 01:06:48;;;;;;;5.47;1.40;;;17.60;99.90;;;;;;4134475;28;20560;-89
2022/10/24 01:08:54;;;;;;;7.60;1.20;;;17.50;99.90;;;;;;4118589;28;20174;-89
2022/10/24 01:11:04;;;;;;;4.72;1.00;;;17.50;99.90;;;;;;4118002;28;20528;-91
2022/10/24 01:13:31;;;;;;;9.90;1.55;;;17.30;99.90;;;;;;4118338;28;20217;-90
2022/10/24 01:15:43;;;;;;;9.30;1.40;;;17.40;99.90;;;;;;4117897;28;20186;-89
2022/10/24 01:17:49;;;;;;;10.32;1.40;;;17.50;99.90;;;;;;4118543;28;20310;-90
2022/10/24 01:20:23;;;;;;;8.80;1.17;;;17.40;99.90;;;;;;4134186;28;20182;-90
2022/10/24 01:22:36;;;;;;;4.97;1.35;;;17.40;99.90;;;;;;4134237;28;20185;-90
2022/10/24 01:24:55;;;;;;;9.38;0.93;;;17.50;99.90;;;;;;4134304;28;20177;-94
2022/10/24 01:27:06;;;;;;;7.70;1.10;;;17.40;99.90;;;;;;4118819;28;20244;-89
2022/10/24 01:29:36;;;;;;;8.32;1.27;;;17.50;99.90;;;;;;4117725;28;20646;-89
2022/10/24 01:32:06;;;;;;;7.82;1.00;;;17.50;99.90;;;;;;4117565;28;20206;-94
2022/10/24 01:34:14;;;;;;;7.55;1.08;;;17.40;99.90;;;;;;4133824;28;20636;-90
2022/10/24 01:36:24;;;;;;;5.93;1.38;;;17.50;99.90;;;;;;4134453;28;20173;-90
2022/10/24 01:38:41;;;;;;;7.45;0.93;;;17.50;99.90;;;;;;4133454;28;20177;-89
2022/10/24 01:41:01;;;;;;;3.97;0.80;;;17.50;99.90;;;;;;4134048;28;20189;-90
2022/10/24 01:43:08;;;;;;;7.57;0.90;;;17.50;99.90;;;;;;4134190;28;20251;-93
2022/10/24 01:45:12;;;;;;;8.32;1.30;;;17.50;99.90;;;;;;4133937;28;20193;-89
2022/10/24 01:47:18;;;;;;;7.50;1.02;;;17.40;99.90;;;;;;4134683;28;20182;-89
2022/10/24 01:49:21;;;;;;;9.60;1.20;;;17.50;99.90;;;;;;4117272;28;20269;-90
2022/10/24 01:51:25;;;;;;;6.40;1.10;;;17.50;99.90;;;;;;4133392;28;20205;-89
2022/10/24 01:53:28;;;;;;;7.10;0.95;;;17.50;99.90;;;;;;4133534;28;20280;-88
2022/10/24 01:55:31;;;;;;;7.20;1.10;;;17.40;99.90;;;;;;4134731;28;20180;-89
2022/10/24 01:57:33;;;;;;;7.75;1.40;;;17.30;99.90;;;;;;4118043;28;20435;-91
2022/10/24 01:59:42;;;;;;;3.97;0.70;;;17.20;99.90;;;;;;4118087;28;20170;-89
2022/10/24 02:01:42;;;;;;;7.72;1.00;;;17.20;99.90;;;;;;4117145;28;20193;-90
2022/10/24 02:03:51;;;;;;;5.88;0.85;;;17.30;99.90;;;;;;4133985;28;20192;-88
2022/10/24 02:05:58;;;;;;;14.63;1.27;;;17.40;99.90;;;;;;4117211;28;20304;-92
2022/10/24 02:08:06;;;;;;;8.10;1.10;;;17.30;99.90;;;;;;4133570;28;20177;-89
2022/10/24 02:10:14;;;;;;;8.95;1.42;;;17.30;99.90;;;;;;4117355;28;20182;-90
2022/10/24 02:12:16;;;;;;;6.10;1.23;;;17.30;99.90;;;;;;4116883;28;20209;-90
2022/10/24 02:14:43;;;;;;;8.15;1.10;;;17.30;99.90;;;;;;4117015;28;20255;-92
2022/10/24 02:16:45;;;;;;;10.38;1.65;;;17.30;99.90;;;;;;4133357;28;20177;-95
2022/10/24 02:18:48;;;;;;;11.88;1.20;;;17.20;99.90;;;;;;4117607;28;20174;-92
2022/10/24 02:21:12;;;;;;;6.95;1.27;;;17.20;99.90;;;;;;4117233;28;20202;-90
2022/10/24 02:23:37;;;;;;;9.43;1.27;;;17.20;99.90;;;;;;4127735;28;20193;-92
2022/10/24 02:25:43;;;;;;;8.13;1.02;;;17.30;99.90;;;;;;4116985;28;20730;-92
2022/10/24 02:28:01;;;;;;;7.05;1.20;;;17.20;99.90;;;;;;4133144;28;20272;-90
2022/10/24 02:30:11;;;;;;;6.10;1.10;;;17.20;99.90;;;;;;4133362;28;20285;-90
2022/10/24 02:32:16;;;;;;;8.15;1.08;;;17.30;99.90;;;;;;4132567;28;20236;-89
2022/10/24 02:34:20;;;;;;;10.85;1.08;;;17.20;99.90;;;;;;4132629;28;20264;-94
2022/10/24 02:36:26;;;;;;;9.73;1.10;;;17.20;99.90;;;;;;4132830;28;20174;-90
2022/10/24 02:38:35;;;;;;;11.75;1.05;;;17.20;99.90;;;;;;4132826;28;20243;-93
2022/10/24 02:40:36;;;;;;;7.53;1.17;;;17.30;99.90;;;;;;4132716;28;20168;-92
2022/10/24 02:42:38;;;;;;;11.45;1.23;;;17.30;99.90;;;;;;4132869;28;20174;-90
2022/10/24 02:44:41;;;;;;;12.20;1.10;;;17.30;99.90;;;;;;4132592;28;20277;-89
2022/10/24 02:46:44;;;;;;;5.35;1.08;;;17.30;99.90;;;;;;4132718;28;20161;-90
2022/10/24 02:48:49;;;;;;;7.43;1.00;;;17.40;99.90;;;;;;4132442;28;20182;-89
2022/10/24 02:50:50;;;;;;;5.07;1.23;;;17.30;99.90;;;;;;4132594;28;20173;-93
2022/10/24 02:52:51;;;;;;;14.50;1.40;;;17.20;99.90;;;;;;4116291;28;20305;-90
2022/10/24 02:54:51;;;;;;;10.48;1.20;;;17.20;99.90;;;;;;4116937;28;20171;-89
2022/10/24 02:56:57;;;;;;;6.55;1.80;;;17.20;99.90;;;;;;4132512;28;20185;-95
2022/10/24 02:58:58;;;;;;;8.73;1.00;;;17.20;99.90;;;;;;4116355;28;20220;-90
2022/10/24 03:00:58;;;;;;;11.35;1.42;;;17.10;99.90;;;;;;4132194;28;20185;-90
2022/10/24 03:02:59;;;;;;;4.80;1.00;;;17.10;99.90;;;;;;4117839;28;20178;-90
2022/10/24 03:04:59;;;;;;;5.20;1.05;;;17.20;99.90;;;;;;4116326;28;20262;-90
2022/10/24 03:07:00;;;;;;;7.75;1.20;;;17.20;99.90;;;;;;4116629;28;20178;-92
2022/10/24 03:09:01;;;;;;;9.30;1.25;;;17.20;99.90;;;;;;4116295;28;20261;-94
2022/10/24 03:11:02;;;;;;;6.22;1.20;;;17.20;99.90;;;;;;4132483;28;20193;-92
2022/10/24 03:13:03;;;;;;;8.70;1.05;;;17.30;99.90;;;;;;4131690;28;20299;-91
2022/10/24 03:15:07;;;;;;;5.65;1.20;;;17.30;99.90;;;;;;4116086;28;20602;-92
2022/10/24 03:17:08;;;;;;;9.05;1.13;;;17.30;99.90;;;;;;4132789;28;20173;-90
2022/10/24 03:19:08;;;;;;;6.93;1.02;;;17.20;99.90;;;;;;4132610;28;20177;-94
2022/10/24 03:21:09;;;;;;;11.43;1.00;;;17.20;99.90;;;;;;4116064;28;20194;-93
2022/10/24 03:23:10;;;;;;;10.82;0.95;;;17.20;99.90;;;;;;4133492;28;20174;-89
2022/10/24 03:25:10;;;;;;;10.23;1.30;;;17.30;99.90;;;;;;4116229;28;20178;-89
2022/10/24 03:27:11;;;;;;;9.45;1.13;;;17.20;99.90;;;;;;4132121;28;20256;-92
2022/10/24 03:29:13;;;;;;;7.97;1.15;;;17.20;99.90;;;;;;4116167;28;20178;-89
2022/10/24 03:31:13;;;;;;;10.50;1.10;;;17.30;99.90;;;;;;4115995;28;20190;-91
2022/10/24 03:33:14;;;;;;;4.38;0.98;;;17.30;99.90;;;;;;4115999;28;20225;-90
2022/10/24 03:35:15;;;;;;;5.20;0.95;;;17.30;99.90;;;;;;4116110;28;20229;-90
2022/10/24 03:37:16;;;;;;;8.40;1.02;;;17.40;99.90;;;;;;4115931;28;20676;-90
2022/10/24 03:39:17;;;;;;;12.73;1.38;;;17.50;99.90;;;;;;4132079;28;20185;-92
2022/10/24 03:41:18;;;;;;;11.80;1.38;;;17.40;99.90;;;;;;4132114;28;20784;-89
2022/10/24 03:43:19;;;;;;;6.38;1.40;;;17.40;99.90;;;;;;4116685;28;20182;-93
2022/10/24 03:45:19;;;;;;;9.35;1.20;;;17.40;99.90;;;;;;4132031;28;20180;-89
2022/10/24 03:47:20;;;;;;;13.65;1.17;;;17.40;99.90;;;;;;4116158;28;20177;-93
2022/10/24 03:49:21;;;;;;;8.40;1.00;;;17.40;99.90;;;;;;4132431;28;20689;-95
2022/10/24 03:51:21;;;;;;;8.40;1.27;;;17.40;99.90;;;;;;4115525;28;20213;-88
2022/10/24 03:53:22;;;;;;;12.90;1.40;;;17.40;99.90;;;;;;4115924;28;20194;-89
2022/10/24 03:55:23;;;;;;;12.15;1.27;;;17.40;99.90;;;;;;4116208;28;20615;-93
2022/10/24 03:57:23;;;;;;;9.10;1.30;;;17.40;99.90;;;;;;4131771;28;20189;-93
2022/10/24 03:59:24;;;;;;;6.68;1.15;;;17.40;99.90;;;;;;4116093;28;20200;-91
2022/10/24 04:01:25;;;;;;;16.08;2.05;;;17.50;99.90;;;;;;4131766;28;20248;-89
2022/10/24 04:03:26;;;;;;;13.32;1.67;;;17.50;99.90;;;;;;4115767;28;20222;-89
2022/10/24 04:05:27;;;;;;;7.93;1.27;;;17.50;99.90;;;;;;4115967;28;20181;-92
2022/10/24 04:07:27;;;;;;;9.10;1.52;;;17.30;99.90;;;;;;4131753;28;20638;-95
2022/10/24 04:09:28;;;;;;;9.52;1.10;;;17.30;99.90;;;;;;4115512;28;20338;-91
2022/10/24 04:11:29;;;;;;;11.40;1.35;;;17.30;99.90;;;;;;4116212;28;20194;-93
2022/10/24 04:13:31;;;;;;;9.55;1.55;;;17.40;99.90;;;;;;4115686;28;20725;-90
2022/10/24 04:15:32;;;;;;;7.80;1.30;;;17.40;99.90;;;;;;4116142;28;20217;-90
2022/10/24 04:17:32;;;;;;;11.45;1.70;;;17.20;99.90;;;;;;4116145;28;20170;-91
2022/10/24 04:19:33;;;;;;;11.10;1.45;;;17.10;99.90;;;;;;4116201;28;20182;-91
2022/10/24 04:21:34;;;;;;;11.55;1.38;;;17.10;99.90;;;;;;4116153;28;20272;-89
2022/10/24 04:23:39;;;;;;;13.68;1.58;;;17.00;99.90;;;;;;4116548;28;20205;-90
2022/10/24 04:25:40;;;;;;;8.68;1.33;;;17.00;99.90;;;;;;4135112;28;20232;-90
2022/10/24 04:27:41;;;;;;;10.48;2.00;;;17.00;99.90;;;;;;4119762;28;20694;-90
2022/10/24 04:29:42;;;;;;;10.98;1.50;;;17.00;99.90;;;;;;4135065;28;20198;-92
2022/10/24 04:31:42;;;;;;;8.95;1.30;;;17.00;99.90;;;;;;4118514;28;20606;-89
2022/10/24 04:33:43;;;;;;;9.85;1.98;;;17.10;99.90;;;;;;4134511;28;20260;-90
2022/10/24 04:35:48;;;;;;;16.35;1.88;;;17.20;99.90;;;;;;4118508;28;20174;-90
2022/10/24 04:37:49;;;;;;;10.60;1.20;;;17.30;99.90;;;;;;4135378;28;20197;-89
2022/10/24 04:39:52;;;;;;;19.15;1.92;;;17.20;99.90;;;;;;4118819;28;20166;-91
2022/10/24 04:41:53;;;;;;;9.48;1.45;;;17.30;99.90;;;;;;4119997;28;20187;-92
2022/10/24 04:43:53;;;;;;;8.82;1.20;;;17.20;99.90;;;;;;4119425;28;20188;-89
2022/10/24 04:45:54;;;;;;;11.70;1.60;;;17.30;99.90;;;;;;4134542;28;20173;-90
2022/10/24 04:47:55;;;;;;;13.07;1.83;;;17.20;99.90;;;;;;4118634;28;20237;-89
2022/10/24 04:49:56;;;;;;;15.85;1.63;;;17.10;99.90;;;;;;4118829;28;20606;-90
2022/10/24 04:51:56;;;;;;;15.25;1.52;;;17.20;99.90;;;;;;4119150;28;20240;-92
2022/10/24 04:53:57;;;;;;;8.85;1.55;;;17.30;99.90;;;;;;4120440;28;20174;-95
2022/10/24 04:55:58;;;;;;;16.98;1.30;;;17.30;99.90;;;;;;4118977;28;20254;-96
2022/10/24 04:58:10;;;;;;;12.13;1.60;;;17.20;99.90;;;;;;4256366;22;20237;-93
2022/10/24 05:00:36;;;;;;;14.88;2.05;;;17.20;99.90;;;;;;4087228;29;20576;-93
2022/10/24 05:02:37;;;;;;;17.08;1.70;;;17.20;99.90;;;;;;4102482;28;20191;-95
2022/10/24 05:04:38;;;;;;;13.23;1.38;;;17.20;99.90;;;;;;4071130;29;20177;-92
2022/10/24 05:06:41;;;;;;;11.98;1.85;;;17.20;99.90;;;;;;4086301;29;20183;-92
2022/10/24 05:08:44;;;;;;;10.63;1.42;;;17.20;99.90;;;;;;4070547;29;20176;-95
2022/10/24 05:10:48;;;;;;;15.10;1.95;;;17.20;99.90;;;;;;4072151;29;20168;-93
2022/10/24 05:13:14;;;;;;;13.00;1.52;;;17.20;99.90;;;;;;4072879;29;20226;-94
2022/10/24 05:18:57;;;;;;;15.93;1.80;;;17.10;99.90;;;;;;4087994;29;20572;-94
2022/10/24 05:21:04;;;;;;;20.13;2.45;;;16.90;99.90;;;;;;4057366;29;20630;-92
2022/10/24 05:23:08;;;;;;;15.55;1.80;;;17.00;99.90;;;;;;4066447;29;20195;-95
2022/10/24 05:25:47;;;;;;;14.38;1.67;;;17.00;99.90;;;;;;4088244;29;20210;-94
2022/10/24 05:31:34;;;;;;;13.70;2.20;;;17.00;99.90;;;;;;4082538;29;20186;-93
2022/10/24 05:34:24;;;;;;;13.93;1.98;;;16.80;99.90;;;;;;4070842;29;20184;-95
2022/10/24 05:36:45;;;;;;;16.25;1.95;;;16.70;99.90;;;;;;4099727;28;20197;-93
2022/10/24 05:43:14;;;;;;;12.30;1.63;;;16.50;99.90;;;;;;4379769;22;20235;-96
2022/10/24 05:50:25;;;;;;;;;;;;;;;;;;;;;
2022/10/24 05:52:57;;;;;;;12.38;1.67;;;16.40;99.90;;;;;;4036568;29;20333;-93
2022/10/24 05:55:00;;;;;;;19.30;1.90;;;16.50;99.90;;;;;;4007605;29;20190;-95
2022/10/24 05:57:01;;;;;;;13.98;2.03;;;16.70;99.90;;;;;;4063904;29;20644;-95
2022/10/24 05:59:02;;;;;;;14.95;2.28;;;16.90;99.90;;;;;;4101204;29;20322;-93
2022/10/24 06:01:03;;;;;;;14.77;1.73;;;16.70;99.90;;;;;;4133459;28;20676;-93
2022/10/24 06:03:04;;;;;;;11.50;1.75;;;16.70;99.90;;;;;;4117221;28;20174;-96
2022/10/24 06:08:26;;;;;;;12.68;2.30;;;16.30;99.90;;;;;;4105977;28;20620;-94
2022/10/24 06:10:36;;;;;;;11.88;1.80;;;16.00;99.90;;;;;;4101943;28;20549;-95
2022/10/24 06:13:13;;;;;;;22.73;2.03;;;16.00;99.90;;;;;;4103278;28;20218;-94
2022/10/24 06:15:17;;;;;;;17.38;1.70;;;15.90;99.90;;;;;;4106436;28;20175;-95
2022/10/24 06:17:56;;;;;;;12.65;1.92;;;16.00;99.90;;;;;;4120169;28;20174;-95
2022/10/24 06:24:09;;;;;;;;;;;;;;;;;;;;;
2022/10/24 06:26:43;;;;;;;11.95;1.58;;;15.70;99.90;;;;;;4075381;29;20191;-94
2022/10/24 06:31:47;;;;;;;11.65;1.15;;;15.40;99.90;;;;;;4087332;29;20206;-94
2022/10/24 06:34:15;;;;;;;7.85;1.35;;;15.40;99.90;;;;;;4055308;29;20226;-94
2022/10/24 06:59:30;;;;;;;16.73;2.20;;;15.30;99.90;;;;;;4149103;28;20213;-94
2022/10/24 07:01:48;;;;;;;13.25;1.63;;;15.10;99.90;;;;;;4132464;28;20194;-95
2022/10/24 07:03:59;;;;;;;13.27;1.60;;;15.10;99.90;;;;;;4148945;28;20185;-93
2022/10/24 07:06:29;;;;;;;14.00;1.75;;;15.10;99.90;;;;;;4149700;28;20731;-94
2022/10/24 07:08:55;;;;;;;16.58;2.08;;;15.10;99.90;;;;;;4104272;28;20202;-94
2022/10/24 07:14:47;;;;;;;14.57;1.77;;;15.20;99.90;;;;;;4099021;29;20199;-93
2022/10/24 07:17:33;;;;;;;;;;;;;;;;;;;;;
2022/10/24 07:20:36;;;;;;;13.45;2.13;;;15.30;99.90;;;;;;4053544;29;20196;-94
2022/10/24 07:23:36;;;;;;;14.82;1.60;;;15.40;99.90;;;;;;4015555;29;20196;-95
2022/10/24 07:26:39;;;;;;;16.67;1.80;;;15.50;99.90;;;;;;4027675;29;20215;-94
2022/10/24 07:29:41;;;;;;;14.10;2.47;;;15.70;99.90;;;;;;4069695;29;20214;-95
2022/10/24 07:31:51;;;;;;;12.52;1.90;;;15.90;99.90;;;;;;4030202;29;20244;-94
2022/10/24 07:37:59;;;;;;;;;;;;;;;;;;;;;
2022/10/24 07:40:32;;;;;;;11.57;1.80;;;16.30;99.90;;;;;;4068274;29;20659;-93
2022/10/24 07:43:18;;;;;;;;;;;;;;;;;;;;;
2022/10/24 07:45:52;;;;;;;;;;;;;;;;;;;;;
2022/10/24 07:48:12;;;;;;;20.50;2.45;;;17.10;99.90;;;;;;4115630;28;20178;-94
2022/10/24 07:51:05;;;;;;;;;;;;;;;;;;;;;
2022/10/24 07:53:48;;;;;;;24.48;2.75;;;17.70;99.90;;;;;;4117774;28;20209;-93
2022/10/24 07:56:10;;;;;;;;;;;;;;;;;;;;;
2022/10/24 07:58:39;;;;;;;16.38;2.00;;;18.10;99.90;;;;;;4115866;28;20304;-95
2022/10/24 08:00:46;;;;;;;16.00;1.80;;;18.30;99.90;;;;;;4104182;28;20513;-94
2022/10/24 08:02:58;;;;;;;16.90;2.40;;;18.70;99.90;;;;;;4103446;29;20274;-93
2022/10/24 08:05:04;;;;;;;13.82;2.50;;;18.80;99.90;;;;;;4135100;28;20207;-94
2022/10/24 08:07:12;;;;;;;14.05;2.35;;;18.80;99.90;;;;;;4135212;28;20178;-92
2022/10/24 08:09:40;;;;;;;14.70;2.25;;;18.80;99.90;;;;;;4110753;28;20233;-94
2022/10/24 08:12:24;;;;;;;16.73;2.50;;;18.80;99.90;;;;;;4135644;28;20756;-94
2022/10/24 08:14:28;;;;;;;13.48;2.20;;;18.60;99.90;;;;;;4119506;28;20182;-93
2022/10/24 08:16:31;;;;;;;16.63;2.22;;;18.30;99.90;;;;;;4103355;29;20263;-94
2022/10/24 08:18:58;;;;;;;15.52;2.25;;;17.80;99.90;;;;;;4103208;28;20618;-94
2022/10/24 08:21:05;;;;;;;11.68;2.22;;;18.00;99.90;;;;;;4103149;28;20198;-90
2022/10/24 08:23:14;;;;;;;23.10;2.50;;;18.20;99.90;;;;;;4119188;28;20178;-94
2022/10/24 08:25:33;;;;;;;16.17;2.17;;;18.50;99.90;;;;;;4134842;28;20173;-95
2022/10/24 08:27:35;;;;;;;12.60;1.95;;;19.30;99.90;;;;;;4136348;28;20239;-94
2022/10/24 08:29:36;;;;;;;17.65;2.60;;;19.90;99.90;;;;;;4103675;28;20226;-95
2022/10/24 08:31:37;;;;;;;17.85;2.15;;;20.20;99.90;;;;;;4104210;28;20759;-95
2022/10/24 08:33:38;;;;;;;12.40;1.90;;;20.00;99.90;;;;;;4104528;28;20194;-95
2022/10/24 08:35:54;;;;;;;14.15;2.15;;;19.80;99.90;;;;;;4104853;28;20258;-94
2022/10/24 08:37:55;;;;;;;17.80;2.55;;;19.80;99.90;;;;;;4121609;28;20177;-94
2022/10/24 08:40:17;;;;;;;12.20;1.95;;;19.70;99.90;;;;;;4105094;28;20270;-91
2022/10/24 08:42:18;;;;;;;16.00;2.22;;;19.70;99.90;;;;;;4106271;29;20785;-95
2022/10/24 08:48:26;;;;;;;20.25;2.30;;;19.80;99.90;;;;;;4106066;28;20190;-96
2022/10/24 08:50:26;;;;;;;10.80;1.77;;;20.30;99.90;;;;;;4118595;28;20190;-92
2022/10/24 08:52:59;;;;;;;12.75;2.08;;;20.40;99.90;;;;;;4103364;28;20218;-94
2022/10/24 08:55:48;;;;;;;9.57;1.73;;;20.00;99.90;;;;;;4120691;28;20244;-96
2022/10/24 08:58:14;;;;;;;15.85;2.53;;;20.10;99.90;;;;;;4117436;28;20232;-96
2022/10/24 09:00:30;;;;;;;8.98;1.70;;;20.00;99.90;;;;;;4135062;28;20178;-92
2022/10/24 09:03:13;;;;;;;11.80;1.98;;;20.00;99.90;;;;;;4104155;29;20198;-94
2022/10/24 09:05:40;;;;;;;15.93;2.00;;;19.90;99.90;;;;;;4056018;29;20709;-93
2022/10/24 09:08:27;;;;;;;14.57;2.30;;;19.40;99.90;;;;;;4042276;29;20189;-93
2022/10/24 09:11:00;;;;;;;14.05;2.15;;;19.10;99.90;;;;;;4089199;28;20186;-96
2022/10/24 09:13:40;;;;;;;22.75;2.22;;;19.10;99.90;;;;;;4120187;28;20316;-95
2022/10/24 09:15:45;;;;;;;15.40;2.20;;;19.00;99.90;;;;;;4137003;28;20169;-95
2022/10/24 09:17:47;;;;;;;12.85;2.13;;;18.80;99.90;;;;;;4136474;28;20180;-91
2022/10/24 09:20:34;;;;;;;13.95;2.05;;;18.50;99.90;;;;;;4135788;28;20181;-96
2022/10/24 09:22:38;;;;;;;17.15;2.28;;;18.40;99.90;;;;;;4103972;28;20171;-94
2022/10/24 09:25:03;;;;;;;15.20;2.58;;;18.30;99.90;;;;;;4103972;28;20187;-91
2022/10/24 09:27:18;;;;;;;17.50;2.42;;;18.30;99.90;;;;;;4105431;29;20195;-95
2022/10/24 09:29:19;;;;;;;14.50;2.22;;;18.10;99.90;;;;;;4120994;28;20213;-95
2022/10/24 09:31:27;;;;;;;20.67;2.65;;;17.90;99.90;;;;;;4102982;29;20687;-93
2022/10/24 09:35:57;;;;;;;13.13;2.38;;;18.10;99.90;;;;;;4120267;28;20681;-92
2022/10/24 09:38:43;;;;;;;18.70;2.35;;;18.30;99.90;;;;;;4135948;28;20276;-95
2022/10/24 09:40:57;;;;;;;20.73;2.42;;;18.50;99.90;;;;;;4118766;28;20186;-94
2022/10/24 09:43:22;;;;;;;17.70;2.25;;;18.70;99.90;;;;;;4135723;28;20252;-96
2022/10/24 09:48:39;;;;;;;19.88;2.10;;;18.80;99.90;;;;;;4120027;28;20689;-95
2022/10/24 09:50:52;;;;;;;14.38;2.40;;;18.60;99.90;;;;;;4111421;28;20186;-95
2022/10/24 09:52:59;;;;;;;13.93;2.00;;;18.70;99.90;;;;;;4129787;22;20221;-95
2022/10/24 09:55:20;;;;;;;15.55;1.95;;;18.90;99.90;;;;;;4151482;28;20199;-93
2022/10/24 09:57:26;;;;;;;15.68;2.65;;;18.90;99.90;;;;;;4134778;28;20193;-93
2022/10/24 09:59:32;;;;;;;15.35;2.20;;;18.90;99.90;;;;;;4133996;28;20233;-94
2022/10/24 10:01:44;;;;;;;12.55;1.77;;;18.80;99.90;;;;;;4136359;28;20217;-94
2022/10/24 10:04:04;;;;;;;12.13;1.95;;;19.00;99.90;;;;;;4135454;28;20173;-92
2022/10/24 10:12:48;;;;;;;16.08;2.42;;;18.90;99.90;;;;;;4103927;29;20277;-95
2022/10/24 10:14:48;;;;;;;13.35;1.90;;;19.00;99.90;;;;;;4100118;28;20190;-92
2022/10/24 10:17:08;;;;;;;12.18;1.85;;;19.10;99.90;;;;;;4111110;28;20300;-96
2022/10/24 10:19:23;;;;;;;17.48;2.22;;;19.00;99.90;;;;;;4151481;28;20550;-94
2022/10/24 10:22:10;;;;;;;16.70;2.15;;;19.10;99.90;;;;;;4134557;28;20689;-94
2022/10/24 10:24:46;;;;;;;12.63;1.92;;;19.00;99.90;;;;;;4150345;28;20187;-94
2022/10/24 10:26:50;;;;;;;13.55;2.13;;;18.90;99.90;;;;;;4135120;28;20177;-95
2022/10/24 10:29:19;;;;;;;12.45;2.03;;;18.80;99.90;;;;;;4135401;28;20207;-95
2022/10/24 10:35:14;;;;;;;13.68;2.05;;;18.70;99.90;;;;;;4093235;29;20211;-95
2022/10/24 10:37:49;;;;;;;14.60;1.85;;;18.80;99.90;;;;;;4008887;29;20194;-94
2022/10/24 10:40:10;;;;;;;13.63;1.95;;;18.80;99.90;;;;;;4084377;29;20183;-93
2022/10/24 10:42:55;;;;;;;17.40;2.60;;;18.70;99.90;;;;;;4070904;29;20197;-94
2022/10/24 10:46:34;;;;;;;;;;;;;;;;;;;;;
2022/10/24 10:49:34;;;;;;;;;;;;;;;;;;;;;
2022/10/24 10:52:15;;;;;;;20.20;1.90;;;18.60;99.90;;;;;;4085514;29;20308;-94
2022/10/24 10:54:47;;;;;;;9.93;1.73;;;18.70;99.90;;;;;;4053973;29;20193;-95
2022/10/24 10:56:59;;;;;;;14.30;1.83;;;19.00;99.90;;;;;;4047462;29;20235;-93
2022/10/24 10:59:24;;;;;;;12.95;1.63;;;19.30;99.90;;;;;;4069344;29;20235;-95
2022/10/24 11:01:50;;;;;;;9.43;1.30;;;19.40;99.90;;;;;;4055209;29;20209;-93
2022/10/24 11:04:22;;;;;;;11.43;1.80;;;19.40;99.90;;;;;;4070458;29;20582;-93
2022/10/24 11:07:25;;;;;;;9.20;1.45;;;19.30;99.90;;;;;;4064243;29;20215;-96
2022/10/24 11:09:53;;;;;;;7.25;1.33;;;19.20;99.90;;;;;;4054418;29;20181;-95
2022/10/24 11:12:37;;;;;;;11.27;1.85;;;19.00;99.90;;;;;;4084885;29;20242;-94
2022/10/24 11:15:12;;;;;;;8.90;1.40;;;19.00;99.90;;;;;;4070318;29;20638;-93
2022/10/24 11:17:31;;;;;;;5.85;1.35;;;18.90;99.90;;;;;;4054623;29;20299;-95
2022/10/24 11:27:14;;;;;;;13.98;1.88;;;18.90;99.90;;;;;;4063033;29;20198;-93
2022/10/24 11:29:47;;;;;;;15.30;1.60;;;19.10;99.90;;;;;;4116976;28;20249;-95
2022/10/24 11:32:29;;;;;;;15.20;1.85;;;19.10;99.90;;;;;;4101947;28;20202;-95
2022/10/24 11:35:00;;;;;;;10.48;1.83;;;19.00;99.90;;;;;;4086065;29;20750;-92
2022/10/24 11:37:19;;;;;;;9.75;1.45;;;19.00;99.90;;;;;;4101497;28;20193;-94
2022/10/24 11:39:48;;;;;;;10.00;1.38;;;19.00;99.90;;;;;;4095931;29;20185;-96
2022/10/24 11:42:06;;;;;;;9.48;1.45;;;19.10;99.90;;;;;;4099710;28;20206;-93
2022/10/24 11:44:48;;;;;;;8.35;1.40;;;19.10;99.90;;;;;;4100608;29;20178;-94
2022/10/24 11:47:00;;;;;;;9.60;1.75;;;19.10;99.90;;;;;;4055314;29;20649;-93
2022/10/24 11:49:35;;;;;;;12.45;1.40;;;18.80;99.90;;;;;;4117060;28;20211;-94
2022/10/24 11:51:55;;;;;;;7.85;1.30;;;18.70;99.90;;;;;;4100129;28;20281;-93
2022/10/24 11:53:57;;;;;;;8.68;1.30;;;18.30;99.90;;;;;;4116277;28;20192;-94
2022/10/24 11:56:39;;;;;;;11.32;1.55;;;18.20;99.90;;;;;;4100300;28;20187;-95
2022/10/24 12:02:12;;;;;;;9.70;1.45;;;18.50;99.90;;;;;;4118037;28;20590;-95
2022/10/24 12:04:52;;;;;;;10.90;1.38;;;18.50;99.90;;;;;;4097849;28;20205;-94
2022/10/24 12:07:32;;;;;;;5.85;0.80;;;18.40;99.90;;;;;;4100949;28;20255;-92
2022/10/24 12:10:46;;;;;;;;;;;;;;;;;;;;;
2022/10/24 12:16:41;;;;;;;4.63;0.70;;;17.90;99.90;;;;;;4106217;28;20193;-96
2022/10/24 12:19:28;;;;;;;4.18;0.73;;;17.90;99.90;;;;;;4100577;28;20270;-94
2022/10/24 12:22:22;;;;;;;;;;;;;;;;;;;;;
2022/10/24 12:24:34;;;;;;;4.07;0.90;;;17.70;99.90;;;;;;4059192;29;20192;-95
2022/10/24 12:26:57;;;;;;;9.43;1.00;;;17.60;99.90;;;;;;4094314;28;20555;-96
2022/10/24 12:29:50;;;;;;;6.47;0.90;;;17.70;99.90;;;;;;4101438;28;20206;-94
2022/10/24 12:31:51;;;;;;;8.23;1.05;;;17.60;99.90;;;;;;4083375;29;20203;-94
2022/10/24 12:34:14;;;;;;;8.43;1.00;;;17.70;99.90;;;;;;4102040;28;20206;-95
2022/10/24 12:36:22;;;;;;;6.57;0.85;;;17.90;99.90;;;;;;4101625;28;20246;-95
2022/10/24 12:38:31;;;;;;;5.03;0.82;;;18.10;99.90;;;;;;4100980;29;20167;-94
2022/10/24 12:43:15;;;;;;;3.00;0.50;;;18.10;99.90;;;;;;4098764;28;20185;-96
2022/10/24 12:45:50;;;;;;;2.78;0.43;;;18.10;99.90;;;;;;4117499;28;20237;-93
2022/10/24 12:48:02;;;;;;;4.18;0.93;;;18.10;99.90;;;;;;4104770;28;20187;-94
2022/10/24 12:50:21;;;;;;;7.97;1.00;;;18.20;99.90;;;;;;4103763;28;20179;-95
2022/10/24 12:53:01;;;;;;;3.95;0.80;;;18.50;99.90;;;;;;4103762;28;20321;-94
2022/10/24 12:55:02;;;;;;;4.35;0.80;;;18.60;99.90;;;;;;4103723;28;20182;-93
2022/10/24 12:57:03;;;;;;;4.07;0.80;;;18.70;99.90;;;;;;4119876;28;20166;-94
2022/10/24 12:59:24;;;;;;;4.05;0.80;;;18.70;99.90;;;;;;4103367;28;20190;-95
2022/10/24 13:05:27;;;;;;;8.05;0.90;;;18.80;99.90;;;;;;4107345;28;20177;-96
2022/10/24 13:07:57;;;;;;;3.95;0.77;;;18.90;99.90;;;;;;4118778;28;20201;-96
2022/10/24 13:10:41;;;;;;;5.97;1.00;;;19.00;99.90;;;;;;4102532;28;20183;-94
2022/10/24 13:12:53;;;;;;;8.77;1.00;;;19.10;99.90;;;;;;4104809;28;20285;-94
2022/10/24 13:15:12;;;;;;;5.25;1.02;;;19.20;99.90;;;;;;4105089;29;20734;-93
2022/10/24 13:17:42;;;;;;;6.63;1.00;;;19.10;99.90;;;;;;4118993;28;20186;-92
2022/10/24 13:20:23;;;;;;;5.40;1.13;;;19.00;99.90;;;;;;4102896;28;20620;-93
2022/10/24 13:22:55;;;;;;;4.07;1.10;;;19.20;99.90;;;;;;4117452;28;20233;-94
2022/10/24 13:25:35;;;;;;;7.07;1.20;;;19.40;99.90;;;;;;4078913;29;20179;-95